ID Time Temp Humidity Light PM2.5 PM10 Voltage Extra Firmware Position Fcnt TTN version Gateways Distance RSSI LSNR Radiosettings
2026-05-09 09:48:26 17.375°C 84.8125% 6 μg/m³ 7 μg/m³ 3.27V v255 No position 37241 ttn.v3 - -113 -11 867.1MHz, SF9BW125, 4/5CR
- -128 -12 867.1MHz, SF9BW125, 4/5CR
- -128 -12.5 867.1MHz, SF9BW125, 4/5CR
- -125 -14.8 867.1MHz, SF9BW125, 4/5CR
2026-05-09 09:16:48 15.8125°C 71.125% 6 μg/m³ 7 μg/m³ 3.27V v255 No position 37239 ttn.v3 - -125 -14.2 867.9MHz, SF9BW125, 4/5CR
- -130 -14.25 867.9MHz, SF9BW125, 4/5CR
2026-05-09 09:00:59 15.375°C 65% 6 μg/m³ 6 μg/m³ 3.27V v255 No position 37238 ttn.v3 - -118 -11 868.5MHz, SF9BW125, 4/5CR
2026-05-09 08:45:11 14.5°C 62.375% 8 μg/m³ 9 μg/m³ 3.27V v255 No position 37237 ttn.v3 - -113 -10.25 867.7MHz, SF9BW125, 4/5CR
- -124 -13.5 867.7MHz, SF9BW125, 4/5CR
2026-05-09 07:26:16 8.3125°C 39.0625% 24 μg/m³ 24 μg/m³ 3.28V v255 No position 37232 ttn.v3 - -118 -12.2 868.5MHz, SF9BW125, 4/5CR
2026-05-09 07:10:30 7.9375°C 39.125% 19 μg/m³ 22 μg/m³ 3.28V v255 No position 37231 ttn.v3 - -130 -12.5 867.1MHz, SF9BW125, 4/5CR
- -125 -13.8 867.1MHz, SF9BW125, 4/5CR
2026-05-09 06:38:58 7°C 41.5625% 11 μg/m³ 11 μg/m³ 3.28V v255 No position 37229 ttn.v3 - -102 -8 867.9MHz, SF9BW125, 4/5CR
- -125 -14.5 867.9MHz, SF9BW125, 4/5CR
2026-05-09 06:23:12 6.9375°C 41.4375% 14 μg/m³ 17 μg/m³ 3.28V v255 No position 37228 ttn.v3 - -123 -10 868.1MHz, SF9BW125, 4/5CR
2026-05-09 06:07:25 7.0625°C 41.5% 14 μg/m³ 14 μg/m³ 3.28V v255 No position 37227 ttn.v3 - -124 -14 867.7MHz, SF9BW125, 4/5CR
2026-05-09 04:32:49 7.4375°C 43.125% 11 μg/m³ 11 μg/m³ 3.28V v255 No position 37221 ttn.v3 - -125 -12.2 867.1MHz, SF9BW125, 4/5CR
2026-05-09 04:01:16 7.375°C 44.3125% 8 μg/m³ 8 μg/m³ 3.28V v255 No position 37219 ttn.v3 - -111 -9.5 867.9MHz, SF9BW125, 4/5CR
2026-05-09 01:55:05 9.25°C 56.1875% 11 μg/m³ 12 μg/m³ 3.27V v255 No position 37211 ttn.v3 - -107 -8.25 867.1MHz, SF9BW125, 4/5CR
- -128 -11.25 867.1MHz, SF9BW125, 4/5CR
- -125 -12.2 867.1MHz, SF9BW125, 4/5CR
2026-05-09 01:23:31 9.9375°C 100.438% 6 μg/m³ 6 μg/m³ 3.27V v255 No position 37209 ttn.v3 - -131 -14.75 867.9MHz, SF9BW125, 4/5CR
2026-05-09 00:20:23 10.5°C 106.312% 11 μg/m³ 11 μg/m³ 3.28V v255 No position 37205 ttn.v3 - -123 -13 867.5MHz, SF9BW125, 4/5CR
2026-05-09 00:04:36 10.3125°C 86.5% 10 μg/m³ 10 μg/m³ 3.28V v255 No position 37204 ttn.v3 - -124 -13 868.1MHz, SF9BW125, 4/5CR
2026-05-08 23:17:15 10.3125°C 114% 6 μg/m³ 6 μg/m³ 3.27V v255 No position 37201 ttn.v3 - -126 -9.75 867.1MHz, SF9BW125, 4/5CR
- -125 -13.2 867.1MHz, SF9BW125, 4/5CR
2026-05-08 22:45:40 10.875°C 3.5% 7 μg/m³ 7 μg/m³ 3.28V v255 No position 37199 ttn.v3 - -108 -10.75 867.9MHz, SF9BW125, 4/5CR
- -130 -13.75 867.9MHz, SF9BW125, 4/5CR
- -115 -13.75 867.9MHz, SF9BW125, 4/5CR
2026-05-08 22:29:53 11.1875°C 6.625% 7 μg/m³ 7 μg/m³ 3.27V v255 No position 37198 ttn.v3 - -125 -13 868.1MHz, SF9BW125, 4/5CR
2026-05-08 21:10:55 13.6875°C 108.562% 3 μg/m³ 3 μg/m³ 3.27V v255 No position 37193 ttn.v3 - -123 -15 867.3MHz, SF9BW125, 4/5CR
2026-05-08 20:55:07 14.375°C 99.1875% 3 μg/m³ 3 μg/m³ 3.27V v255 No position 37192 ttn.v3 - -122 -10.5 868.1MHz, SF9BW125, 4/5CR
2026-05-08 20:39:19 14.9375°C 98.5625% 4 μg/m³ 4 μg/m³ 3.27V v255 No position 37191 ttn.v3 - -127 -9.5 867.1MHz, SF9BW125, 4/5CR
- -124 -11 867.1MHz, SF9BW125, 4/5CR
2026-05-08 20:07:42 15.75°C 94% 2 μg/m³ 2 μg/m³ 3.27V v255 No position 37189 ttn.v3 - -109 -9.5 867.9MHz, SF9BW125, 4/5CR
- -125 -12.2 867.9MHz, SF9BW125, 4/5CR
2026-05-08 19:20:16 16.375°C 84.1875% 4 μg/m³ 4 μg/m³ 3.27V v255 No position 37186 ttn.v3 - -122 -9.5 868.1MHz, SF9BW125, 4/5CR
2026-05-08 18:32:49 17.0625°C 81.5625% 3 μg/m³ 3 μg/m³ 3.27V v255 No position 37183 ttn.v3 - -123 -11 867.3MHz, SF9BW125, 4/5CR
2026-05-08 18:01:12 16.6875°C 82.625% 5 μg/m³ 6 μg/m³ 3.27V v255 No position 37181 ttn.v3 - -125 -10 867.1MHz, SF9BW125, 4/5CR
- -127 -10.25 867.1MHz, SF9BW125, 4/5CR
2026-05-08 17:45:23 16.8125°C 83.5% 3 μg/m³ 3 μg/m³ 3.27V v255 No position 37180 ttn.v3 - -124 -10.2 868.1MHz, SF9BW125, 4/5CR
2026-05-08 17:29:34 16.875°C 83.3125% 4 μg/m³ 4 μg/m³ 3.27V v255 No position 37179 ttn.v3 - -110 -8 867.9MHz, SF9BW125, 4/5CR
- -124 -11 867.9MHz, SF9BW125, 4/5CR
- -129 -13.25 867.9MHz, SF9BW125, 4/5CR
2026-05-08 16:57:57 17.1875°C 81.9375% 6 μg/m³ 6 μg/m³ 3.27V v255 No position 37177 ttn.v3 - -124 -13.5 867.7MHz, SF9BW125, 4/5CR
2026-05-08 16:10:29 17.5625°C 84.125% 6 μg/m³ 6 μg/m³ 3.27V v255 No position 37174 ttn.v3 - -124 -10 868.1MHz, SF9BW125, 4/5CR
2026-05-08 15:54:40 17.25°C 86.5% 10 μg/m³ 10 μg/m³ 3.27V v255 No position 37173 ttn.v3 - -123 -14.2 867.3MHz, SF9BW125, 4/5CR
2026-05-08 15:23:03 16.625°C 92.5625% 5 μg/m³ 6 μg/m³ 3.27V v255 No position 37171 ttn.v3 - -122 -5.75 867.1MHz, SF9BW125, 4/5CR
- -124 -10 867.1MHz, SF9BW125, 4/5CR
- -110 -12.25 867.1MHz, SF9BW125, 4/5CR
2026-05-08 14:51:25 16.875°C 93% 6 μg/m³ 6 μg/m³ 3.27V v255 No position 37169 ttn.v3 - -108 -9.25 867.9MHz, SF9BW125, 4/5CR
- -125 -13.5 867.9MHz, SF9BW125, 4/5CR
- -129 -13.75 867.9MHz, SF9BW125, 4/5CR
2026-05-08 14:35:36 17°C 92.3125% 6 μg/m³ 8 μg/m³ 3.27V v255 No position 37168 ttn.v3 - -117 -12 868.1MHz, SF9BW125, 4/5CR
2026-05-08 14:19:47 17.375°C 90.375% 5 μg/m³ 5 μg/m³ 3.27V v255 No position 37167 ttn.v3 - -124 -13.2 867.7MHz, SF9BW125, 4/5CR
2026-05-08 13:16:29 20.6875°C 83.875% 6 μg/m³ 6 μg/m³ 3.27V v255 No position 37163 ttn.v3 - -124 -7.75 867.3MHz, SF9BW125, 4/5CR
- -124 -13.5 867.3MHz, SF9BW125, 4/5CR
2026-05-08 12:44:48 22.8125°C 81.125% 7 μg/m³ 7 μg/m³ 3.27V v255 No position 37161 ttn.v3 - -121 -4.5 867.1MHz, SF9BW125, 4/5CR
- -111 -10 867.1MHz, SF9BW125, 4/5CR
- -125 -14 867.1MHz, SF9BW125, 4/5CR
2026-05-08 12:28:58 21.1875°C 90.4375% 7 μg/m³ 7 μg/m³ 3.27V v255 No position 37160 ttn.v3 - -114 -11.75 868.5MHz, SF9BW125, 4/5CR
2026-05-08 12:13:08 20.25°C 103.562% 7 μg/m³ 8 μg/m³ 3.27V v255 No position 37159 ttn.v3 - -123 -7.25 867.9MHz, SF9BW125, 4/5CR
- -125 -15.2 867.9MHz, SF9BW125, 4/5CR
2026-05-08 11:41:29 18.8125°C 5.375% 8 μg/m³ 8 μg/m³ 3.27V v255 No position 37157 ttn.v3 - -124 -8.25 867.7MHz, SF9BW125, 4/5CR
2026-05-08 11:25:39 17.75°C 71.875% 6 μg/m³ 7 μg/m³ 3.27V v255 No position 37156 ttn.v3 - -124 -7 868.1MHz, SF9BW125, 4/5CR
2026-05-08 10:38:13 15.6875°C 70.8125% 8 μg/m³ 8 μg/m³ 3.27V v255 No position 37153 ttn.v3 - -124 -14.2 867.3MHz, SF9BW125, 4/5CR
2026-05-08 10:06:43 13.5°C 61.5625% 12 μg/m³ 12 μg/m³ 3.27V v255 No position 37151 ttn.v3 - -124 -10.5 867.1MHz, SF9BW125, 4/5CR
2026-05-08 09:50:56 12.8125°C 59% 9 μg/m³ 11 μg/m³ 3.27V v255 No position 37150 ttn.v3 - -114 -11.5 868.1MHz, SF9BW125, 4/5CR
- -125 -13.2 868.1MHz, SF9BW125, 4/5CR
2026-05-08 09:35:08 12°C 55.375% 9 μg/m³ 9 μg/m³ 3.27V v255 No position 37149 ttn.v3 - -125 -9 867.9MHz, SF9BW125, 4/5CR
2026-05-08 09:03:34 11.0625°C 49.875% 10 μg/m³ 10 μg/m³ 3.27V v255 No position 37147 ttn.v3 - -130 -13.75 867.7MHz, SF9BW125, 4/5CR
2026-05-08 08:16:13 10.0625°C 45.4375% 11 μg/m³ 11 μg/m³ 3.28V v255 No position 37144 ttn.v3 - -124 -13.2 868.1MHz, SF9BW125, 4/5CR
2026-05-08 08:00:27 9.9375°C 44.5% 15 μg/m³ 16 μg/m³ 3.28V v255 No position 37143 ttn.v3 - -123 -11.5 867.3MHz, SF9BW125, 4/5CR
2026-05-08 07:28:53 9.6875°C 43.1875% 12 μg/m³ 12 μg/m³ 3.28V v255 No position 37141 ttn.v3 - -126 -9.5 867.1MHz, SF9BW125, 4/5CR
- -124 -10.8 867.1MHz, SF9BW125, 4/5CR
2026-05-08 06:57:20 9.375°C 43.625% 13 μg/m³ 15 μg/m³ 3.28V v255 No position 37139 ttn.v3 - -125 -12 867.9MHz, SF9BW125, 4/5CR
2026-05-08 06:41:33 9.375°C 44.375% 16 μg/m³ 16 μg/m³ 3.28V v255 No position 37138 ttn.v3 - -124 -11.8 868.1MHz, SF9BW125, 4/5CR
- -115 -12.75 868.1MHz, SF9BW125, 4/5CR
2026-05-08 06:25:47 9.4375°C 44.9375% 15 μg/m³ 18 μg/m³ 3.27V v255 No position 37137 ttn.v3 - -107 -9.75 867.7MHz, SF9BW125, 4/5CR
- -124 -14.2 867.7MHz, SF9BW125, 4/5CR
2026-05-08 05:22:39 9.875°C 48.8125% 17 μg/m³ 19 μg/m³ 3.28V v255 No position 37133 ttn.v3 - -124 -11.2 867.3MHz, SF9BW125, 4/5CR
2026-05-08 05:06:52 9.9375°C 51% 11 μg/m³ 12 μg/m³ 3.28V v255 No position 37132 ttn.v3 - -124 -9.8 868.1MHz, SF9BW125, 4/5CR
- -117 -13 868.1MHz, SF9BW125, 4/5CR
2026-05-08 04:51:05 10°C 56.375% 12 μg/m³ 12 μg/m³ 3.27V v255 No position 37131 ttn.v3 - -124 -9 867.1MHz, SF9BW125, 4/5CR
2026-05-08 04:19:31 10.1875°C 66.4375% 13 μg/m³ 15 μg/m³ 3.28V v255 No position 37129 ttn.v3 - -125 -12.2 867.9MHz, SF9BW125, 4/5CR
- -110 -13 867.9MHz, SF9BW125, 4/5CR
2026-05-08 03:47:57 10.375°C 87.375% 8 μg/m³ 8 μg/m³ 3.27V v255 No position 37127 ttn.v3 - -124 -12.8 867.7MHz, SF9BW125, 4/5CR
2026-05-08 03:32:10 10.5°C 98.5625% 8 μg/m³ 9 μg/m³ 3.27V v255 No position 37126 ttn.v3 - -117 -12.75 868.1MHz, SF9BW125, 4/5CR
- -124 -13.2 868.1MHz, SF9BW125, 4/5CR
2026-05-08 03:16:23 10.625°C 110.938% 7 μg/m³ 7 μg/m³ 3.27V v255 No position 37125 ttn.v3 - -121 -15 867.5MHz, SF9BW125, 4/5CR
2026-05-08 02:44:49 10.875°C -3.9375% 8 μg/m³ 8 μg/m³ 3.27V v255 No position 37123 ttn.v3 - -124 -15.2 867.3MHz, SF9BW125, 4/5CR
2026-05-08 02:13:14 11.1875°C 6.8125% 8 μg/m³ 8 μg/m³ 3.27V v255 No position 37121 ttn.v3 - -124 -9.5 867.1MHz, SF9BW125, 4/5CR
2026-05-08 01:57:27 11.3125°C 8.9375% 8 μg/m³ 8 μg/m³ 3.27V v255 No position 37120 ttn.v3 - -105 -10.75 868.1MHz, SF9BW125, 4/5CR
- -115 -12.25 868.1MHz, SF9BW125, 4/5CR
2026-05-08 01:41:39 11.375°C 10.4375% 5 μg/m³ 5 μg/m³ 3.28V v255 No position 37119 ttn.v3 - -120 -8.25 867.9MHz, SF9BW125, 4/5CR
- -125 -11.2 867.9MHz, SF9BW125, 4/5CR
2026-05-08 01:10:05 11.5625°C 11.0625% 7 μg/m³ 9 μg/m³ 3.27V v255 No position 37117 ttn.v3 - -101 -12 867.7MHz, SF9BW125, 4/5CR
- -124 -14 867.7MHz, SF9BW125, 4/5CR
2026-05-08 00:22:42 11.8125°C 8.375% 10 μg/m³ 11 μg/m³ 3.28V v255 No position 37114 ttn.v3 - -113 -9 868.1MHz, SF9BW125, 4/5CR
- -123 -9.2 868.1MHz, SF9BW125, 4/5CR
- -125 -12.25 868.1MHz, SF9BW125, 4/5CR
- -117 -13.25 868.1MHz, SF9BW125, 4/5CR
2026-05-08 00:06:55 11.9375°C 7.9375% 4 μg/m³ 4 μg/m³ 3.28V v255 No position 37113 ttn.v3 - -124 -13.2 867.3MHz, SF9BW125, 4/5CR
2026-05-07 23:35:20 12.5°C 0.375% 3 μg/m³ 3 μg/m³ 3.27V v255 No position 37111 ttn.v3 - -121 -9.25 867.1MHz, SF9BW125, 4/5CR
- -124 -11.2 867.1MHz, SF9BW125, 4/5CR
2026-05-07 23:03:44 12.8125°C -4.6875% 4 μg/m³ 5 μg/m³ 3.28V v255 No position 37109 ttn.v3 - -121 -5 867.9MHz, SF9BW125, 4/5CR
- -124 -9 867.9MHz, SF9BW125, 4/5CR
- -111 -9.75 867.9MHz, SF9BW125, 4/5CR
2026-05-07 22:47:56 13.125°C 114.25% 1 μg/m³ 1 μg/m³ 3.27V v255 No position 37108 ttn.v3 - -124 -12.2 868.1MHz, SF9BW125, 4/5CR
2026-05-07 22:32:08 13.3125°C 111.312% 2 μg/m³ 2 μg/m³ 3.27V v255 No position 37107 ttn.v3 - -109 -6.5 867.7MHz, SF9BW125, 4/5CR
- -122 -9 867.7MHz, SF9BW125, 4/5CR
- -125 -12.8 867.7MHz, SF9BW125, 4/5CR
2026-05-07 22:00:32 13.5625°C 105.812% 2 μg/m³ 3 μg/m³ 3.27V v255 No position 37105 ttn.v3 - -122 -13.2 867.5MHz, SF9BW125, 4/5CR
2026-05-07 21:28:56 13.875°C 102.688% 3 μg/m³ 4 μg/m³ 3.27V v255 No position 37103 ttn.v3 - -124 -10.8 867.3MHz, SF9BW125, 4/5CR
2026-05-07 21:13:08 14.0625°C 102% 2 μg/m³ 3 μg/m³ 3.27V v255 No position 37102 ttn.v3 - -124 -9.5 868.1MHz, SF9BW125, 4/5CR
2026-05-07 20:57:20 14.1875°C 100.125% 3 μg/m³ 4 μg/m³ 3.27V v255 No position 37101 ttn.v3 - -124 -8.5 867.1MHz, SF9BW125, 4/5CR
- -110 -10 867.1MHz, SF9BW125, 4/5CR
2026-05-07 20:25:44 14.375°C 98% 2 μg/m³ 2 μg/m³ 3.27V v255 No position 37099 ttn.v3 - -125 -10.2 867.9MHz, SF9BW125, 4/5CR
2026-05-07 19:54:07 14.6875°C 96.625% 2 μg/m³ 2 μg/m³ 3.27V v255 No position 37097 ttn.v3 - -124 -12.8 867.7MHz, SF9BW125, 4/5CR
2026-05-07 19:38:19 14.75°C 95.875% 3 μg/m³ 4 μg/m³ 3.27V v255 No position 37096 ttn.v3 - -124 -10.2 868.1MHz, SF9BW125, 4/5CR
2026-05-07 19:22:30 14.8125°C 94.8125% 1 μg/m³ 1 μg/m³ 3.27V v255 No position 37095 ttn.v3 - -118 -15 867.5MHz, SF9BW125, 4/5CR
2026-05-07 18:50:53 15.0625°C 92.0625% 6 μg/m³ 11 μg/m³ 3.27V v255 No position 37093 ttn.v3 - -123 -11.2 867.3MHz, SF9BW125, 4/5CR
2026-05-07 18:19:17 15.375°C 89.6875% 1 μg/m³ 1 μg/m³ 3.27V v255 No position 37091 ttn.v3 - -122 -6 867.1MHz, SF9BW125, 4/5CR
- -124 -8.8 867.1MHz, SF9BW125, 4/5CR
- -109 -10.5 867.1MHz, SF9BW125, 4/5CR
2026-05-07 18:03:28 15.75°C 87.5% 2 μg/m³ 3 μg/m³ 3.27V v255 No position 37090 ttn.v3 - -124 -11.5 868.1MHz, SF9BW125, 4/5CR
- -115 -13 868.1MHz, SF9BW125, 4/5CR
2026-05-07 17:47:39 16.1875°C 85.1875% 2 μg/m³ 4 μg/m³ 3.27V v255 No position 37089 ttn.v3 - -124 -10 867.9MHz, SF9BW125, 4/5CR
2026-05-07 17:16:01 17.125°C 82.75% 2 μg/m³ 3 μg/m³ 3.27V v255 No position 37087 ttn.v3 - -124 -9 867.7MHz, SF9BW125, 4/5CR
- -107 -10 867.7MHz, SF9BW125, 4/5CR
2026-05-07 15:41:07 17.0625°C 81.125% 2 μg/m³ 2 μg/m³ 3.27V v255 No position 37081 ttn.v3 - -108 -10 867.1MHz, SF9BW125, 4/5CR
- -124 -13.5 867.1MHz, SF9BW125, 4/5CR
- -131 -14.5 867.1MHz, SF9BW125, 4/5CR
2026-05-07 15:09:29 17.1875°C 85.125% 2 μg/m³ 2 μg/m³ 3.27V v255 No position 37079 ttn.v3 - -124 -8 867.9MHz, SF9BW125, 4/5CR
- -122 -8 867.9MHz, SF9BW125, 4/5CR
- -125 -11.2 867.9MHz, SF9BW125, 4/5CR
2026-05-07 14:53:40 17.375°C 86.1875% 1 μg/m³ 2 μg/m³ 3.27V v255 No position 37078 ttn.v3 - -124 -9.5 868.1MHz, SF9BW125, 4/5CR
- -117 -14.25 868.1MHz, SF9BW125, 4/5CR
2026-05-07 14:37:50 17.3125°C 84.375% 2 μg/m³ 3 μg/m³ 3.27V v255 No position 37077 ttn.v3 - -121 -6.25 867.7MHz, SF9BW125, 4/5CR
- -124 -12.2 867.7MHz, SF9BW125, 4/5CR
2026-05-07 14:06:12 16.9375°C 83.3125% 1 μg/m³ 2 μg/m³ 3.27V v255 No position 37075 ttn.v3 - -118 -13.8 867.5MHz, SF9BW125, 4/5CR
2026-05-07 13:18:43 21.25°C 75.125% 1 μg/m³ 1 μg/m³ 3.27V v255 No position 37072 ttn.v3 - -124 -11.5 868.1MHz, SF9BW125, 4/5CR
2026-05-07 13:02:53 20.875°C 75.25% 6 μg/m³ 11 μg/m³ 3.27V v255 No position 37071 ttn.v3 - -122 -5 867.1MHz, SF9BW125, 4/5CR
2026-05-07 12:31:13 20.5625°C 80.1875% 2 μg/m³ 3 μg/m³ 3.27V v255 No position 37069 ttn.v3 - -121 -6.5 867.9MHz, SF9BW125, 4/5CR
2026-05-07 11:59:33 20.625°C 82.875% 4 μg/m³ 4 μg/m³ 3.27V v255 No position 37067 ttn.v3 - -124 -8.25 867.7MHz, SF9BW125, 4/5CR
2026-05-07 11:43:44 20.5°C 82% 4 μg/m³ 6 μg/m³ 3.27V v255 No position 37066 ttn.v3 - -117 -9.75 868.1MHz, SF9BW125, 4/5CR
2026-05-07 11:12:04 19.75°C 88.875% 1 μg/m³ 2 μg/m³ 3.27V v255 No position 37064 ttn.v3 - -114 -12.75 868.5MHz, SF9BW125, 4/5CR
2026-05-07 10:56:15 18.9375°C 91% 1 μg/m³ 2 μg/m³ 3.27V v255 No position 37063 ttn.v3 - -125 -9.25 867.3MHz, SF9BW125, 4/5CR
- -113 -13.25 867.3MHz, SF9BW125, 4/5CR
- -124 -14.5 867.3MHz, SF9BW125, 4/5CR
2026-05-07 10:24:36 17.375°C 112.5% 1 μg/m³ 1 μg/m³ 3.27V v255 No position 37061 ttn.v3 - -121 -6.5 867.1MHz, SF9BW125, 4/5CR
- -125 -8.25 867.1MHz, SF9BW125, 4/5CR
- -110 -9.5 867.1MHz, SF9BW125, 4/5CR
- -124 -10.5 867.1MHz, SF9BW125, 4/5CR
2026-05-07 09:52:59 16.6875°C 6% 2 μg/m³ 2 μg/m³ 3.27V v255 No position 37059 ttn.v3 - -110 -10.25 867.9MHz, SF9BW125, 4/5CR
2026-05-07 09:21:22 14.6875°C 75.625% 1 μg/m³ 1 μg/m³ 3.27V v255 No position 37057 ttn.v3 - -107 -10.25 867.7MHz, SF9BW125, 4/5CR
- -129 -14.25 867.7MHz, SF9BW125, 4/5CR
2026-05-07 09:07:42 13.5625°C 74% 3 μg/m³ 5 μg/m³ 3.27V v255 No position 37056 ttn.v3 - -115 -16.25 868.3MHz, SF12BW125, 4/5CR
2026-05-07 08:34:05 11.5625°C 61.125% 1 μg/m³ 2 μg/m³ 3.28V v255 No position 37054 ttn.v3 - -125 -10.75 868.1MHz, SF9BW125, 4/5CR
- -124 -12.8 868.1MHz, SF9BW125, 4/5CR
- -117 -13.25 868.1MHz, SF9BW125, 4/5CR
2026-05-07 08:18:18 9.9375°C 53% 2 μg/m³ 5 μg/m³ 3.28V v255 No position 37053 ttn.v3 - -119 -3.75 867.3MHz, SF9BW125, 4/5CR
- -123 -12.2 867.3MHz, SF9BW125, 4/5CR
2026-05-07 07:46:45 8.5625°C 44.25% 1 μg/m³ 2 μg/m³ 3.27V v255 No position 37051 ttn.v3 - -122 -6 867.1MHz, SF9BW125, 4/5CR
2026-05-07 07:15:13 8.0625°C 43.1875% 3 μg/m³ 4 μg/m³ 3.27V v255 No position 37049 ttn.v3 - -110 -9.75 867.9MHz, SF9BW125, 4/5CR
- -124 -10.25 867.9MHz, SF9BW125, 4/5CR
- -128 -11.5 867.9MHz, SF9BW125, 4/5CR
2026-05-07 06:59:26 8.125°C 43% 4 μg/m³ 5 μg/m³ 3.28V v255 No position 37048 ttn.v3 - -124 -11.5 868.1MHz, SF9BW125, 4/5CR
2026-05-07 05:40:35 7.125°C 44.5% 2 μg/m³ 2 μg/m³ 3.28V v255 No position 37043 ttn.v3 - -124 -9.5 867.3MHz, SF9BW125, 4/5CR
2026-05-07 05:24:49 7.0625°C 45.125% 2 μg/m³ 2 μg/m³ 3.28V v255 No position 37042 ttn.v3 - -124 -14 868.1MHz, SF9BW125, 4/5CR
2026-05-07 05:09:03 7.1875°C 47.5% 1 μg/m³ 1 μg/m³ 3.28V v255 No position 37041 ttn.v3 - -125 -10.2 867.1MHz, SF9BW125, 4/5CR
2026-05-07 04:37:31 7.4375°C 53.3125% 2 μg/m³ 3 μg/m³ 3.28V v255 No position 37039 ttn.v3 - -125 -13.8 867.9MHz, SF9BW125, 4/5CR
2026-05-07 03:50:12 8.25°C 105.625% 1 μg/m³ 1 μg/m³ 3.28V v255 No position 37036 ttn.v3 - -117 -13.75 868.1MHz, SF9BW125, 4/5CR
2026-05-07 03:02:53 8.6875°C 0.8125% 1 μg/m³ 2 μg/m³ 3.28V v255 No position 37033 ttn.v3 - -124 -9 867.3MHz, SF9BW125, 4/5CR
- -130 -14 867.3MHz, SF9BW125, 4/5CR
2026-05-07 02:31:20 9°C 5.375% 6 μg/m³ 11 μg/m³ 3.28V v255 No position 37031 ttn.v3 - -128 -11.75 867.1MHz, SF9BW125, 4/5CR
- -124 -12.5 867.1MHz, SF9BW125, 4/5CR
2026-05-07 02:15:33 9.0625°C 7.3125% 4 μg/m³ 6 μg/m³ 3.27V v255 No position 37030 ttn.v3 - -128 -12.25 868.1MHz, SF9BW125, 4/5CR
2026-05-07 01:59:47 9.3125°C 9.9375% 2 μg/m³ 2 μg/m³ 3.28V v255 No position 37029 ttn.v3 - -130 -13.5 867.9MHz, SF9BW125, 4/5CR
2026-05-07 00:56:40 10.5625°C 6.25% 2 μg/m³ 3 μg/m³ 3.27V v255 No position 37025 ttn.v3 - -123 -9.2 867.5MHz, SF9BW125, 4/5CR
2026-05-07 00:40:53 10.75°C 4.4375% 4 μg/m³ 6 μg/m³ 3.27V v255 No position 37024 ttn.v3 - -124 -13 868.1MHz, SF9BW125, 4/5CR
2026-05-07 00:25:06 10.9375°C 2.25% 3 μg/m³ 4 μg/m³ 3.27V v255 No position 37023 ttn.v3 - -123 -7 867.3MHz, SF9BW125, 4/5CR
- -110 -8.25 867.3MHz, SF9BW125, 4/5CR
- -126 -10 867.3MHz, SF9BW125, 4/5CR
2026-05-06 23:53:32 11.125°C -3.0625% 1 μg/m³ 1 μg/m³ 3.28V v255 No position 37021 ttn.v3 - -124 -6.5 867.1MHz, SF9BW125, 4/5CR
- -128 -10.75 867.1MHz, SF9BW125, 4/5CR
- -108 -10.75 867.1MHz, SF9BW125, 4/5CR
2026-05-06 23:21:57 11.375°C -5.75% 1 μg/m³ 2 μg/m³ 3.27V v255 No position 37019 ttn.v3 - -124 -8 867.9MHz, SF9BW125, 4/5CR
- -128 -11.25 867.9MHz, SF9BW125, 4/5CR
2026-05-06 23:06:10 11.5625°C -5.25% 2 μg/m³ 2 μg/m³ 3.28V v255 No position 37018 ttn.v3 - -123 -7.5 868.1MHz, SF9BW125, 4/5CR
2026-05-06 22:50:23 11.6875°C -4.5% 2 μg/m³ 2 μg/m³ 3.27V v255 No position 37017 ttn.v3 - -124 -9.8 867.7MHz, SF9BW125, 4/5CR
2026-05-06 21:47:14 12.375°C -4.3125% 3 μg/m³ 4 μg/m³ 3.27V v255 No position 37013 ttn.v3 - -124 -9.8 867.3MHz, SF9BW125, 4/5CR
2026-05-06 21:31:26 12.5°C 111.875% 1 μg/m³ 2 μg/m³ 3.27V v255 No position 37012 ttn.v3 - -115 -12.25 868.1MHz, SF9BW125, 4/5CR
2026-05-06 21:15:39 12.5625°C 95.9375% 2 μg/m³ 3 μg/m³ 3.28V v255 No position 37011 ttn.v3 - -127 -11.25 867.1MHz, SF9BW125, 4/5CR
- -125 -11.8 867.1MHz, SF9BW125, 4/5CR
2026-05-06 20:44:04 12.6875°C 96.9375% 2 μg/m³ 4 μg/m³ 3.27V v255 No position 37009 ttn.v3 - -126 -9.25 867.9MHz, SF9BW125, 4/5CR
- -109 -9.5 867.9MHz, SF9BW125, 4/5CR
- -123 -11.25 867.9MHz, SF9BW125, 4/5CR
- -125 -14.2 867.9MHz, SF9BW125, 4/5CR
2026-05-06 19:56:41 13.125°C 90.625% 2 μg/m³ 2 μg/m³ 3.27V v255 No position 37006 ttn.v3 - -122 -7.25 868.1MHz, SF9BW125, 4/5CR
- -124 -9.8 868.1MHz, SF9BW125, 4/5CR
2026-05-06 19:09:18 13.5625°C 85.8125% 1 μg/m³ 1 μg/m³ 3.27V v255 No position 37003 ttn.v3 - -123 -9.5 867.3MHz, SF9BW125, 4/5CR
2026-05-06 18:37:42 14.0625°C 85.5% 1 μg/m³ 1 μg/m³ 3.27V v255 No position 37001 ttn.v3 - -126 -10 867.1MHz, SF9BW125, 4/5CR
- -124 -10.2 867.1MHz, SF9BW125, 4/5CR
- -129 -11.75 867.1MHz, SF9BW125, 4/5CR
2026-05-06 18:21:54 14.0625°C 84.1875% 4 μg/m³ 6 μg/m³ 3.27V v255 No position 37000 ttn.v3 - -124 -10.2 868.1MHz, SF9BW125, 4/5CR
2026-05-06 18:06:06 14.125°C 83.0625% 5 μg/m³ 5 μg/m³ 3.27V v255 No position 36999 ttn.v3 - -124 -6.8 867.9MHz, SF9BW125, 4/5CR
- -128 -11.75 867.9MHz, SF9BW125, 4/5CR
- -115 -14 867.9MHz, SF9BW125, 4/5CR
2026-05-06 16:31:17 13.8125°C 86.5% 1 μg/m³ 2 μg/m³ 3.27V v255 No position 36993 ttn.v3 - -123 -12.5 867.3MHz, SF9BW125, 4/5CR
- -128 -12.75 867.3MHz, SF9BW125, 4/5CR
2026-05-06 15:59:41 13.75°C 85.5% 1 μg/m³ 2 μg/m³ 3.27V v255 No position 36991 ttn.v3 - -125 -8.25 867.1MHz, SF9BW125, 4/5CR
- -125 -12.8 867.1MHz, SF9BW125, 4/5CR
2026-05-06 15:28:05 13.8125°C 86.5625% 3 μg/m³ 3 μg/m³ 3.27V v255 No position 36989 ttn.v3 - -124 -10 867.9MHz, SF9BW125, 4/5CR
- -124 -12 867.9MHz, SF9BW125, 4/5CR
- -106 -12 867.9MHz, SF9BW125, 4/5CR
2026-05-06 15:12:17 14°C 83.6875% 1 μg/m³ 1 μg/m³ 3.27V v255 No position 36988 ttn.v3 - -122 -8.25 868.1MHz, SF9BW125, 4/5CR
2026-05-06 14:56:29 14.4375°C 80.0625% 1 μg/m³ 1 μg/m³ 3.27V v255 No position 36987 ttn.v3 - -127 -11 867.7MHz, SF9BW125, 4/5CR
2026-05-06 13:53:17 15.125°C 80.75% 2 μg/m³ 3 μg/m³ 3.27V v255 No position 36983 ttn.v3 - -129 -12.5 867.3MHz, SF9BW125, 4/5CR
2026-05-06 13:37:28 15.4375°C 89.1875% 3 μg/m³ 3 μg/m³ 3.27V v255 No position 36982 ttn.v3 - -124 -9.8 868.1MHz, SF9BW125, 4/5CR
2026-05-06 13:21:40 15°C 87.3125% 3 μg/m³ 3 μg/m³ 3.27V v255 No position 36981 ttn.v3 - -124 -8 867.1MHz, SF9BW125, 4/5CR
2026-05-06 12:50:03 16.625°C 74.1875% 1 μg/m³ 1 μg/m³ 3.27V v255 No position 36979 ttn.v3 - -125 -12.5 867.9MHz, SF9BW125, 4/5CR
2026-05-06 12:18:27 14.625°C 89.1875% 2 μg/m³ 2 μg/m³ 3.27V v255 No position 36977 ttn.v3 - -124 -9 867.7MHz, SF9BW125, 4/5CR
- -124 -10 867.7MHz, SF9BW125, 4/5CR
2026-05-06 12:02:38 15.75°C 78.875% 3 μg/m³ 4 μg/m³ 3.27V v255 No position 36976 ttn.v3 - -125 -10.2 868.1MHz, SF9BW125, 4/5CR
2026-05-06 11:46:50 17.0625°C 83.75% 4 μg/m³ 4 μg/m³ 3.27V v255 No position 36975 ttn.v3 - -123 -12.2 867.5MHz, SF9BW125, 4/5CR
2026-05-06 10:43:35 16.8125°C 91.5625% 3 μg/m³ 3 μg/m³ 3.27V v255 No position 36971 ttn.v3 - -124 -10 867.1MHz, SF9BW125, 4/5CR
- -108 -11 867.1MHz, SF9BW125, 4/5CR
2026-05-06 10:27:46 14.6875°C 111.438% 2 μg/m³ 2 μg/m³ 3.27V v255 No position 36970 ttn.v3 - -124 -11.5 868.1MHz, SF9BW125, 4/5CR
2026-05-06 10:11:59 13.75°C 117.125% 3 μg/m³ 3 μg/m³ 3.27V v255 No position 36969 ttn.v3 - -125 -11.8 867.9MHz, SF9BW125, 4/5CR
2026-05-06 09:40:23 13.5625°C 118.875% 1 μg/m³ 1 μg/m³ 3.27V v255 No position 36967 ttn.v3 - -124 -9.2 867.7MHz, SF9BW125, 4/5CR
2026-05-06 09:08:48 12.9375°C 18.5% 2 μg/m³ 3 μg/m³ 3.27V v255 No position 36965 ttn.v3 - -123 -12.2 867.5MHz, SF9BW125, 4/5CR
2026-05-06 08:05:39 11.1875°C 77.1875% 9 μg/m³ 10 μg/m³ 3.27V v255 No position 36961 ttn.v3 - -122 -6.75 867.1MHz, SF9BW125, 4/5CR
2026-05-06 07:52:00 11°C 67.4375% 3 μg/m³ 3 μg/m³ 3.27V v255 No position 36960 ttn.v3 - -114 -20 868.3MHz, SF12BW125, 4/5CR
2026-05-06 07:34:11 10.75°C 65.1875% 2 μg/m³ 2 μg/m³ 3.28V v255 52.0754 / 5.11353 36959 ttn.v3 1.203km -125 -11 867.9MHz, SF9BW125, 4/5CR
- -120 -13.75 867.9MHz, SF9BW125, 4/5CR
2026-05-06 07:18:24 10.5°C 60.75% 2 μg/m³ 3 μg/m³ 3.27V v255 52.0754 / 5.11353 36958 ttn.v3 2.656km -128 -12.25 868.1MHz, SF9BW125, 4/5CR
- -115 -12.75 868.1MHz, SF9BW125, 4/5CR
2026-05-06 07:02:37 10.3125°C 56.75% 3 μg/m³ 4 μg/m³ 3.28V v255 52.0754 / 5.11353 36957 ttn.v3 1.203km -123 -16 867.7MHz, SF9BW125, 4/5CR
2026-05-06 06:46:50 10.125°C 53.1875% 5 μg/m³ 5 μg/m³ 3.28V v255 52.0754 / 5.11353 36956 ttn.v3 2.656km -121 -12.5 868.5MHz, SF9BW125, 4/5CR
2026-05-06 05:59:29 9.9375°C 91.75% 5 μg/m³ 5 μg/m³ 3.28V v255 52.0754 / 5.11353 36953 ttn.v3 2.656km -127 -7 867.3MHz, SF9BW125, 4/5CR
1.203km -124 -13 867.3MHz, SF9BW125, 4/5CR
2026-05-06 05:43:42 9.875°C 93.875% 5 μg/m³ 6 μg/m³ 3.28V v255 52.0754 / 5.11353 36952 ttn.v3 2.656km -125 -10.5 868.1MHz, SF9BW125, 4/5CR
2026-05-06 05:27:55 9.875°C 88.0625% 4 μg/m³ 6 μg/m³ 3.28V v255 52.0754 / 5.11353 36951 ttn.v3 2.656km -120 -3.5 867.1MHz, SF9BW125, 4/5CR
1.203km -125 -10.8 867.1MHz, SF9BW125, 4/5CR
3.479km -107 -11 867.1MHz, SF9BW125, 4/5CR
2026-05-06 05:12:08 9.8125°C 90.875% 5 μg/m³ 5 μg/m³ 3.27V v255 52.0754 / 5.11353 36950 ttn.v3 2.656km -123 -11.5 868.5MHz, SF9BW125, 4/5CR
2026-05-06 04:56:22 9.75°C 92.1875% 5 μg/m³ 5 μg/m³ 3.27V v255 52.0754 / 5.11353 36949 ttn.v3 2.656km -122 -4.75 867.9MHz, SF9BW125, 4/5CR
- -120 -5.75 867.9MHz, SF9BW125, 4/5CR
3.479km -111 -10.25 867.9MHz, SF9BW125, 4/5CR
2026-05-06 04:24:48 9.8125°C 109.375% 5 μg/m³ 5 μg/m³ 3.28V v255 52.0754 / 5.11353 36947 ttn.v3 2.656km -122 -6 867.7MHz, SF9BW125, 4/5CR
2026-05-06 04:09:02 9.875°C -5.6875% 4 μg/m³ 4 μg/m³ 3.27V v255 52.0754 / 5.11353 36946 ttn.v3 1.203km -124 -11.2 868.1MHz, SF9BW125, 4/5CR
2026-05-06 03:53:15 10°C 8.5625% 6 μg/m³ 6 μg/m³ 3.28V v255 52.0754 / 5.11353 36945 ttn.v3 2.656km -123 -9.25 867.5MHz, SF9BW125, 4/5CR
1.203km -124 -13.5 867.5MHz, SF9BW125, 4/5CR
2026-05-06 03:21:41 10.1875°C 15.125% 6 μg/m³ 6 μg/m³ 3.27V v255 52.0754 / 5.11353 36943 ttn.v3 2.656km -121 -5.5 867.3MHz, SF9BW125, 4/5CR
2026-05-06 02:50:07 10.1875°C 9.8125% 6 μg/m³ 8 μg/m³ 3.27V v255 52.0754 / 5.11353 36941 ttn.v3 2.656km -119 -2.25 867.1MHz, SF9BW125, 4/5CR
3.479km -109 -9 867.1MHz, SF9BW125, 4/5CR
1.203km -125 -13.8 867.1MHz, SF9BW125, 4/5CR
2026-05-06 02:34:21 10.1875°C 2.1875% 7 μg/m³ 8 μg/m³ 3.27V v255 52.0754 / 5.11353 36940 ttn.v3 1.203km -124 -9 868.1MHz, SF9BW125, 4/5CR
2026-05-06 02:18:34 10.125°C 117.75% 3 μg/m³ 3 μg/m³ 3.28V v255 52.0754 / 5.11353 36939 ttn.v3 2.656km -121 -4 867.9MHz, SF9BW125, 4/5CR
- -121 -6.75 867.9MHz, SF9BW125, 4/5CR
3.479km -109 -9 867.9MHz, SF9BW125, 4/5CR
- -115 -13.75 867.9MHz, SF9BW125, 4/5CR
2026-05-06 02:02:47 10.125°C 115.5% 6 μg/m³ 7 μg/m³ 3.27V v255 52.0754 / 5.11353 36938 ttn.v3 2.656km -121 -13.75 868.5MHz, SF9BW125, 4/5CR
2026-05-06 00:59:40 10.125°C 118.5% 7 μg/m³ 7 μg/m³ 3.28V v255 52.0754 / 5.11353 36934 ttn.v3 1.203km -123 -10.5 868.1MHz, SF9BW125, 4/5CR
2026-05-06 00:43:53 10.125°C 0.125% 6 μg/m³ 7 μg/m³ 3.28V v255 52.0754 / 5.11353 36933 ttn.v3 2.656km -120 -4.25 867.3MHz, SF9BW125, 4/5CR
2026-05-06 00:28:06 10.125°C 10.375% 6 μg/m³ 6 μg/m³ 3.28V v255 52.0754 / 5.11353 36932 ttn.v3 2.656km -122 -14.5 868.5MHz, SF9BW125, 4/5CR
2026-05-06 00:12:19 10.125°C 17.8125% 4 μg/m³ 5 μg/m³ 3.28V v255 52.0754 / 5.11353 36931 ttn.v3 2.656km -120 -3.75 867.1MHz, SF9BW125, 4/5CR
2026-05-05 23:56:33 10°C 19.9375% 3 μg/m³ 3 μg/m³ 3.27V v255 52.0754 / 5.11353 36930 ttn.v3 - -115 -11.5 868.3MHz, SF9BW125, 4/5CR
1.203km -116 -15 868.3MHz, SF9BW125, 4/5CR
2026-05-05 23:40:46 10°C 19.5625% 4 μg/m³ 4 μg/m³ 3.27V v255 52.0754 / 5.11353 36929 ttn.v3 2.656km -121 -4.25 867.9MHz, SF9BW125, 4/5CR
- -120 -5.75 867.9MHz, SF9BW125, 4/5CR
3.479km -109 -9.25 867.9MHz, SF9BW125, 4/5CR
1.203km -125 -13.8 867.9MHz, SF9BW125, 4/5CR
2026-05-05 23:24:59 10.125°C 18.9375% 4 μg/m³ 5 μg/m³ 3.27V v255 52.0754 / 5.11353 36928 ttn.v3 2.656km -122 -6.75 868.1MHz, SF9BW125, 4/5CR
1.203km -125 -12.5 868.1MHz, SF9BW125, 4/5CR
2026-05-05 23:09:12 10.3125°C 18.25% 2 μg/m³ 2 μg/m³ 3.28V v255 52.0754 / 5.11353 36927 ttn.v3 2.656km -121 -6.25 867.7MHz, SF9BW125, 4/5CR
1.203km -124 -11.8 867.7MHz, SF9BW125, 4/5CR
2026-05-05 22:37:38 10.9375°C 15.6875% 8 μg/m³ 9 μg/m³ 3.28V v255 52.0754 / 5.11353 36925 ttn.v3 1.203km -123 -10.5 867.5MHz, SF9BW125, 4/5CR
2026-05-05 22:21:51 11.3125°C 15.4375% 2 μg/m³ 2 μg/m³ 3.27V v255 52.0754 / 5.11353 36924 ttn.v3 2.656km -121 -12.5 868.3MHz, SF9BW125, 4/5CR
2026-05-05 22:06:04 11.5°C 16.125% 5 μg/m³ 5 μg/m³ 3.27V v255 52.0754 / 5.11353 36923 ttn.v3 2.656km -121 -5.5 867.3MHz, SF9BW125, 4/5CR
2026-05-05 21:50:17 11.5625°C 15.9375% 7 μg/m³ 7 μg/m³ 3.27V v255 52.0754 / 5.11353 36922 ttn.v3 1.203km -124 -10.2 868.1MHz, SF9BW125, 4/5CR
3.479km -107 -13.5 868.1MHz, SF9BW125, 4/5CR
2026-05-05 21:34:29 11.75°C 15.6875% 6 μg/m³ 6 μg/m³ 3.27V v255 52.0754 / 5.11353 36921 ttn.v3 1.203km -124 -12.8 867.1MHz, SF9BW125, 4/5CR
2026-05-05 20:31:20 12.6875°C 11.9375% 3 μg/m³ 3 μg/m³ 3.27V v255 52.0754 / 5.11353 36917 ttn.v3 3.479km -107 -8 867.7MHz, SF9BW125, 4/5CR
2.656km -124 -11.25 867.7MHz, SF9BW125, 4/5CR
2026-05-05 20:15:32 12.875°C 10% 6 μg/m³ 7 μg/m³ 3.27V v255 52.0754 / 5.11353 36916 ttn.v3 2.656km -126 -11.25 868.1MHz, SF9BW125, 4/5CR
2026-05-05 19:43:57 13.5625°C 5.375% 3 μg/m³ 3 μg/m³ 3.28V v255 52.0754 / 5.11353 36914 ttn.v3 1.203km -115 -15 868.5MHz, SF9BW125, 4/5CR
2026-05-05 18:56:33 15°C -5.5625% 3 μg/m³ 3 μg/m³ 3.27V v255 52.0754 / 5.11353 36911 ttn.v3 2.656km -121 -5 867.1MHz, SF9BW125, 4/5CR
3.479km -104 -11.75 867.1MHz, SF9BW125, 4/5CR
2026-05-05 18:24:56 15.6875°C 112.875% 5 μg/m³ 5 μg/m³ 3.27V v255 52.0754 / 5.11353 36909 ttn.v3 1.203km -124 -12.2 867.9MHz, SF9BW125, 4/5CR
2026-05-05 18:09:07 16.625°C 104.625% 5 μg/m³ 5 μg/m³ 3.27V v255 52.0754 / 5.11353 36908 ttn.v3 2.656km -122 -11.5 868.5MHz, SF9BW125, 4/5CR
2026-05-05 17:53:19 16.5°C 105.812% 6 μg/m³ 8 μg/m³ 3.27V v255 52.0754 / 5.11353 36907 ttn.v3 2.656km -122 -11.75 867.7MHz, SF9BW125, 4/5CR
2026-05-05 17:05:52 17.25°C 106.25% 8 μg/m³ 9 μg/m³ 3.27V v255 52.0754 / 5.11353 36904 ttn.v3 1.203km -123 -9 868.1MHz, SF9BW125, 4/5CR
2026-05-05 16:50:03 17°C 108.25% 5 μg/m³ 5 μg/m³ 3.27V v255 52.0754 / 5.11353 36903 ttn.v3 2.656km -124 -7.25 867.3MHz, SF9BW125, 4/5CR
2026-05-05 15:46:46 18.75°C 116.438% 6 μg/m³ 6 μg/m³ 3.27V v255 52.0754 / 5.11353 36899 ttn.v3 1.203km -125 -10 867.9MHz, SF9BW125, 4/5CR
2.656km -128 -12.75 867.9MHz, SF9BW125, 4/5CR
2026-05-05 15:30:57 19.3125°C 3.5625% 5 μg/m³ 5 μg/m³ 3.27V v255 52.0754 / 5.11353 36898 ttn.v3 1.203km -124 -9.5 868.1MHz, SF9BW125, 4/5CR
2026-05-05 14:43:29 17°C 72.25% 4 μg/m³ 4 μg/m³ 3.27V v255 52.0754 / 5.11353 36895 ttn.v3 1.203km -121 -11 867.5MHz, SF9BW125, 4/5CR
2026-05-05 13:40:17 13.1875°C 48.9375% 7 μg/m³ 7 μg/m³ 3.27V v255 52.0754 / 5.11353 36891 ttn.v3 2.656km -126 -9.5 867.1MHz, SF9BW125, 4/5CR
2026-05-05 13:08:41 12.75°C 44.5% 10 μg/m³ 12 μg/m³ 3.27V v255 52.0754 / 5.11353 36889 ttn.v3 2.656km -123 -7.75 867.9MHz, SF9BW125, 4/5CR
1.203km -125 -10.8 867.9MHz, SF9BW125, 4/5CR
2026-05-05 12:37:07 12.3125°C 43.0625% 9 μg/m³ 10 μg/m³ 3.27V v255 52.0754 / 5.11353 36887 ttn.v3 3.479km -107 -11.5 867.7MHz, SF9BW125, 4/5CR
1.203km -124 -13.2 867.7MHz, SF9BW125, 4/5CR
2026-05-05 12:21:19 11.75°C 40.8125% 6 μg/m³ 6 μg/m³ 3.27V v255 52.0754 / 5.11353 36886 ttn.v3 1.203km -124 -11.8 868.1MHz, SF9BW125, 4/5CR
2026-05-05 11:33:57 11.875°C 42% 5 μg/m³ 5 μg/m³ 3.28V v255 52.0754 / 5.11353 36883 ttn.v3 2.656km -126 -10.75 867.3MHz, SF9BW125, 4/5CR
2026-05-05 11:02:23 11.375°C 41.3125% 6 μg/m³ 6 μg/m³ 3.27V v255 52.0754 / 5.11353 36881 ttn.v3 1.203km -124 -9.2 867.1MHz, SF9BW125, 4/5CR
2026-05-05 10:30:48 11.625°C 42.5% 5 μg/m³ 5 μg/m³ 3.27V v255 52.0754 / 5.11353 36879 ttn.v3 1.203km -124 -7 867.9MHz, SF9BW125, 4/5CR
- -114 -12.5 867.9MHz, SF9BW125, 4/5CR
2026-05-05 09:59:14 11.0625°C 36.3125% 9 μg/m³ 10 μg/m³ 3.27V v255 52.0754 / 5.11353 36877 ttn.v3 1.203km -124 -12.8 867.7MHz, SF9BW125, 4/5CR
2026-05-05 09:11:53 10.375°C 33.375% 7 μg/m³ 7 μg/m³ 3.28V v255 52.0754 / 5.11353 36874 ttn.v3 1.203km -123 -6.8 868.1MHz, SF9BW125, 4/5CR
2.656km -128 -13.25 868.1MHz, SF9BW125, 4/5CR
2026-05-05 08:24:32 9.875°C 30.0625% 9 μg/m³ 9 μg/m³ 3.27V v255 52.0754 / 5.11353 36871 ttn.v3 1.203km -124 -13.5 867.1MHz, SF9BW125, 4/5CR
2026-05-05 07:52:59 9.6875°C 29.75% 11 μg/m³ 12 μg/m³ 3.28V v255 52.0754 / 5.11353 36869 ttn.v3 2.656km -127 -12.75 867.9MHz, SF9BW125, 4/5CR
1.203km -125 -13.2 867.9MHz, SF9BW125, 4/5CR

Message count: 200
Node count: 1

Messages per node

Number of messages in list aboveNodes
200

Statistics per gateway

GatewayNumber of messagesNumber of nodesNodes
1481 (1.203km)
861 (2.656km)
401 (3.479km)
231
181

Filter by dataset